Search for airport 
image banner adimage banner adimage banner ad
image banner ad

N79 - Northumberland County

Located in Shamokin, United States

ICAO - N79, IATA -

Data provided by Airmate  

General information

Coordinates: N40°50'13" W76°33'9"
Elevation is 881 feet MSL.
Magnetic variation is -11° East
View others Airports in Pennsylvania

Operational data

Special qualification required
Current time UTC:
Current local time:
Weather at : KSEG - Penn Valley ( 26 km )
METAR: KSEG 150743Z AUTO 00000KT 1 1/2SM BR OVC002 14/14 A2982 RMK AO2 T01440144
View NOTAMs / SUP AIP / TFR affecting this airport [VIEW]
Communications frequencies: [VIEW]

Runways:

RWY identifierQFULength (ft)Width (ft)SurfaceLDA (ft)
0872°329775ASPH
26252°329775ASPH

Airport contact information

Address: Shamokin United States

Satellite view of N79